sensor_id;sensor_type;location;lat;lon;timestamp;pressure;altitude;pressure_sealevel;temperature;humidity
43119;BME280;28729;49.838;8.650;2023-10-31T00:00:56;98076.91;;;12.86;100.00
43119;BME280;28729;49.838;8.650;2023-10-31T00:04:58;98079.47;;;12.83;100.00
43119;BME280;28729;49.838;8.650;2023-10-31T00:09:03;98090.09;;;12.75;100.00
43119;BME280;28729;49.838;8.650;2023-10-31T00:13:04;98089.28;;;12.75;100.00
43119;BME280;28729;49.838;8.650;2023-10-31T00:17:06;98093.59;;;12.67;100.00
43119;BME280;28729;49.838;8.650;2023-10-31T00:21:08;98094.19;;;12.50;100.00
43119;BME280;28729;49.838;8.650;2023-10-31T00:25:12;98116.09;;;12.47;100.00
43119;BME280;28729;49.838;8.650;2023-10-31T00:29:14;98139.28;;;12.46;100.00
43119;BME280;28729;49.838;8.650;2023-10-31T00:33:16;98141.84;;;12.42;100.00
43119;BME280;28729;49.838;8.650;2023-10-31T00:37:18;98138.13;;;12.33;100.00
43119;BME280;28729;49.838;8.650;2023-10-31T00:41:20;98140.34;;;12.17;100.00
43119;BME280;28729;49.838;8.650;2023-10-31T00:45:22;98141.28;;;12.07;100.00
43119;BME280;28729;49.838;8.650;2023-10-31T00:49:24;98139.09;;;11.91;100.00
43119;BME280;28729;49.838;8.650;2023-10-31T00:53:26;98125.41;;;11.80;100.00
43119;BME280;28729;49.838;8.650;2023-10-31T00:57:28;98138.75;;;11.73;100.00
43119;BME280;28729;49.838;8.650;2023-10-31T01:01:30;98136.44;;;11.61;100.00
43119;BME280;28729;49.838;8.650;2023-10-31T01:05:32;98135.63;;;11.61;100.00
43119;BME280;28729;49.838;8.650;2023-10-31T01:09:34;98142.50;;;11.63;100.00
43119;BME280;28729;49.838;8.650;2023-10-31T01:13:36;98149.13;;;11.62;100.00
43119;BME280;28729;49.838;8.650;2023-10-31T01:17:41;98143.44;;;11.54;100.00
43119;BME280;28729;49.838;8.650;2023-10-31T01:21:42;98157.38;;;11.44;100.00
43119;BME280;28729;49.838;8.650;2023-10-31T01:25:44;98140.97;;;11.33;100.00
43119;BME280;28729;49.838;8.650;2023-10-31T01:29:46;98146.31;;;11.25;100.00
43119;BME280;28729;49.838;8.650;2023-10-31T01:33:50;98145.63;;;11.14;100.00
43119;BME280;28729;49.838;8.650;2023-10-31T01:37:52;98156.69;;;11.09;100.00
43119;BME280;28729;49.838;8.650;2023-10-31T01:41:54;98169.22;;;11.01;100.00
43119;BME280;28729;49.838;8.650;2023-10-31T01:45:56;98166.78;;;10.94;100.00
43119;BME280;28729;49.838;8.650;2023-10-31T01:50:00;98174.38;;;11.08;100.00
43119;BME280;28729;49.838;8.650;2023-10-31T01:54:03;98170.66;;;11.17;100.00
43119;BME280;28729;49.838;8.650;2023-10-31T01:58:05;98178.06;;;11.22;100.00
43119;BME280;28729;49.838;8.650;2023-10-31T02:02:07;98165.44;;;11.16;100.00
43119;BME280;28729;49.838;8.650;2023-10-31T02:06:09;98162.28;;;11.04;100.00
43119;BME280;28729;49.838;8.650;2023-10-31T02:10:12;98156.34;;;10.91;100.00
43119;BME280;28729;49.838;8.650;2023-10-31T02:14:14;98157.00;;;10.83;100.00
43119;BME280;28729;49.838;8.650;2023-10-31T02:18:15;98159.81;;;10.78;100.00
43119;BME280;28729;49.838;8.650;2023-10-31T02:22:17;98159.91;;;10.68;100.00
43119;BME280;28729;49.838;8.650;2023-10-31T02:26:20;98162.13;;;10.66;100.00
43119;BME280;28729;49.838;8.650;2023-10-31T02:30:22;98169.91;;;10.59;100.00
43119;BME280;28729;49.838;8.650;2023-10-31T02:34:24;98176.06;;;10.51;100.00
43119;BME280;28729;49.838;8.650;2023-10-31T02:38:27;98177.50;;;10.43;100.00
43119;BME280;28729;49.838;8.650;2023-10-31T02:42:29;98182.75;;;10.39;100.00
43119;BME280;28729;49.838;8.650;2023-10-31T02:46:32;98190.44;;;10.42;100.00
43119;BME280;28729;49.838;8.650;2023-10-31T02:50:35;98183.19;;;10.52;100.00
43119;BME280;28729;49.838;8.650;2023-10-31T02:54:37;98175.38;;;10.64;100.00
43119;BME280;28729;49.838;8.650;2023-10-31T02:58:39;98203.69;;;10.69;100.00
43119;BME280;28729;49.838;8.650;2023-10-31T03:02:41;98200.91;;;10.75;100.00
43119;BME280;28729;49.838;8.650;2023-10-31T03:06:44;98217.06;;;10.81;100.00
43119;BME280;28729;49.838;8.650;2023-10-31T03:10:49;98219.25;;;10.84;100.00
43119;BME280;28729;49.838;8.650;2023-10-31T03:14:54;98225.31;;;10.86;100.00
43119;BME280;28729;49.838;8.650;2023-10-31T03:18:56;98217.81;;;10.92;100.00
43119;BME280;28729;49.838;8.650;2023-10-31T03:22:58;98223.31;;;10.92;100.00
43119;BME280;28729;49.838;8.650;2023-10-31T03:27:00;98227.75;;;10.88;100.00
43119;BME280;28729;49.838;8.650;2023-10-31T03:31:02;98225.31;;;10.86;100.00
43119;BME280;28729;49.838;8.650;2023-10-31T03:35:05;98244.00;;;10.89;100.00
43119;BME280;28729;49.838;8.650;2023-10-31T03:39:08;98255.53;;;10.91;100.00
43119;BME280;28729;49.838;8.650;2023-10-31T03:43:11;98248.38;;;10.95;100.00
43119;BME280;28729;49.838;8.650;2023-10-31T03:47:13;98261.53;;;11.04;100.00
43119;BME280;28729;49.838;8.650;2023-10-31T03:51:16;98259.22;;;11.11;100.00
43119;BME280;28729;49.838;8.650;2023-10-31T03:55:17;98273.75;;;11.22;100.00
43119;BME280;28729;49.838;8.650;2023-10-31T03:59:20;98276.16;;;11.28;100.00
43119;BME280;28729;49.838;8.650;2023-10-31T04:03:22;98275.91;;;11.25;100.00
43119;BME280;28729;49.838;8.650;2023-10-31T04:07:24;98282.06;;;11.16;100.00
43119;BME280;28729;49.838;8.650;2023-10-31T04:11:26;98273.06;;;11.06;100.00
43119;BME280;28729;49.838;8.650;2023-10-31T04:15:28;98258.75;;;11.04;100.00
43119;BME280;28729;49.838;8.650;2023-10-31T04:19:30;98273.16;;;10.95;100.00
43119;BME280;28729;49.838;8.650;2023-10-31T04:23:32;98273.16;;;10.95;100.00
43119;BME280;28729;49.838;8.650;2023-10-31T04:27:33;98282.47;;;11.00;100.00
43119;BME280;28729;49.838;8.650;2023-10-31T04:31:37;98282.44;;;11.05;100.00
43119;BME280;28729;49.838;8.650;2023-10-31T04:35:44;98288.16;;;11.13;100.00
43119;BME280;28729;49.838;8.650;2023-10-31T04:39:46;98277.38;;;11.17;100.00
43119;BME280;28729;49.838;8.650;2023-10-31T04:43:48;98284.50;;;11.18;100.00
43119;BME280;28729;49.838;8.650;2023-10-31T04:47:53;98289.22;;;11.17;100.00
43119;BME280;28729;49.838;8.650;2023-10-31T04:51:55;98285.59;;;11.22;100.00
43119;BME280;28729;49.838;8.650;2023-10-31T04:55:57;98288.84;;;11.24;100.00
43119;BME280;28729;49.838;8.650;2023-10-31T04:59:59;98291.88;;;11.28;100.00
43119;BME280;28729;49.838;8.650;2023-10-31T05:04:01;98297.91;;;11.30;100.00
43119;BME280;28729;49.838;8.650;2023-10-31T05:08:13;98306.44;;;11.33;100.00
43119;BME280;28729;49.838;8.650;2023-10-31T05:12:16;98298.66;;;11.35;100.00
43119;BME280;28729;49.838;8.650;2023-10-31T05:16:18;98312.41;;;11.40;100.00
43119;BME280;28729;49.838;8.650;2023-10-31T05:20:21;98306.59;;;11.42;100.00
43119;BME280;28729;49.838;8.650;2023-10-31T05:24:22;98308.50;;;11.47;100.00
43119;BME280;28729;49.838;8.650;2023-10-31T05:28:25;98316.50;;;11.48;100.00
43119;BME280;28729;49.838;8.650;2023-10-31T05:32:29;98322.81;;;11.49;100.00
43119;BME280;28729;49.838;8.650;2023-10-31T05:36:35;98323.88;;;11.53;100.00
43119;BME280;28729;49.838;8.650;2023-10-31T05:40:37;98323.28;;;11.56;100.00
43119;BME280;28729;49.838;8.650;2023-10-31T05:44:39;98328.81;;;11.56;100.00
43119;BME280;28729;49.838;8.650;2023-10-31T05:48:42;98340.34;;;11.63;100.00
43119;BME280;28729;49.838;8.650;2023-10-31T05:52:45;98343.59;;;11.65;100.00
43119;BME280;28729;49.838;8.650;2023-10-31T05:56:46;98350.78;;;11.66;100.00
43119;BME280;28729;49.838;8.650;2023-10-31T06:00:48;98357.41;;;11.65;100.00
43119;BME280;28729;49.838;8.650;2023-10-31T06:04:50;98361.88;;;11.61;100.00
43119;BME280;28729;49.838;8.650;2023-10-31T06:08:52;98370.72;;;11.58;100.00
43119;BME280;28729;49.838;8.650;2023-10-31T06:12:53;98371.31;;;11.55;100.00
43119;BME280;28729;49.838;8.650;2023-10-31T06:16:55;98379.59;;;11.55;100.00
43119;BME280;28729;49.838;8.650;2023-10-31T06:21:01;98397.53;;;11.52;100.00
43119;BME280;28729;49.838;8.650;2023-10-31T06:25:03;98402.81;;;11.49;100.00
43119;BME280;28729;49.838;8.650;2023-10-31T06:29:04;98410.50;;;11.52;100.00
43119;BME280;28729;49.838;8.650;2023-10-31T06:33:26;98418.25;;;11.50;100.00
43119;BME280;28729;49.838;8.650;2023-10-31T06:37:28;98418.78;;;11.52;100.00
43119;BME280;28729;49.838;8.650;2023-10-31T06:41:30;98425.34;;;11.56;100.00
43119;BME280;28729;49.838;8.650;2023-10-31T06:45:31;98429.28;;;11.50;100.00
43119;BME280;28729;49.838;8.650;2023-10-31T06:49:33;98439.47;;;11.54;100.00
43119;BME280;28729;49.838;8.650;2023-10-31T06:53:35;98441.94;;;11.51;100.00
43119;BME280;28729;49.838;8.650;2023-10-31T06:57:37;98443.88;;;11.50;100.00
43119;BME280;28729;49.838;8.650;2023-10-31T07:01:38;98446.31;;;11.57;100.00
43119;BME280;28729;49.838;8.650;2023-10-31T07:05:41;98459.28;;;11.56;100.00
43119;BME280;28729;49.838;8.650;2023-10-31T07:09:43;98468.38;;;11.57;100.00
43119;BME280;28729;49.838;8.650;2023-10-31T07:13:45;98470.91;;;11.53;100.00
43119;BME280;28729;49.838;8.650;2023-10-31T07:17:47;98478.91;;;11.55;100.00
43119;BME280;28729;49.838;8.650;2023-10-31T07:21:49;98492.13;;;11.58;100.00
43119;BME280;28729;49.838;8.650;2023-10-31T07:25:51;98496.81;;;11.57;100.00
43119;BME280;28729;49.838;8.650;2023-10-31T07:29:53;98501.25;;;11.53;100.00
43119;BME280;28729;49.838;8.650;2023-10-31T07:33:55;98515.81;;;11.59;100.00
43119;BME280;28729;49.838;8.650;2023-10-31T07:37:57;98515.28;;;11.57;100.00
43119;BME280;28729;49.838;8.650;2023-10-31T07:41:59;98518.81;;;11.62;100.00
43119;BME280;28729;49.838;8.650;2023-10-31T07:46:01;98529.59;;;11.64;100.00
43119;BME280;28729;49.838;8.650;2023-10-31T07:50:04;98529.00;;;11.67;100.00
43119;BME280;28729;49.838;8.650;2023-10-31T07:54:06;98532.03;;;11.66;100.00
43119;BME280;28729;49.838;8.650;2023-10-31T07:58:07;98533.94;;;11.70;100.00
43119;BME280;28729;49.838;8.650;2023-10-31T08:02:11;98535.56;;;11.76;100.00
43119;BME280;28729;49.838;8.650;2023-10-31T08:06:13;98533.03;;;11.80;100.00
43119;BME280;28729;49.838;8.650;2023-10-31T08:10:14;98541.84;;;11.82;100.00
43119;BME280;28729;49.838;8.650;2023-10-31T08:14:17;98539.59;;;11.89;100.00
43119;BME280;28729;49.838;8.650;2023-10-31T08:18:19;98538.41;;;12.00;100.00
43119;BME280;28729;49.838;8.650;2023-10-31T08:22:21;98543.00;;;12.10;100.00
43119;BME280;28729;49.838;8.650;2023-10-31T08:26:23;98542.09;;;12.20;100.00
43119;BME280;28729;49.838;8.650;2023-10-31T08:30:26;98547.84;;;12.23;100.00
43119;BME280;28729;49.838;8.650;2023-10-31T08:34:28;98550.50;;;12.34;100.00
43119;BME280;28729;49.838;8.650;2023-10-31T08:38:31;98550.47;;;12.39;100.00
43119;BME280;28729;49.838;8.650;2023-10-31T08:42:33;98552.03;;;12.45;100.00
43119;BME280;28729;49.838;8.650;2023-10-31T08:46:35;98565.75;;;12.55;100.00
43119;BME280;28729;49.838;8.650;2023-10-31T08:50:37;98567.91;;;12.58;100.00
43119;BME280;28729;49.838;8.650;2023-10-31T08:54:40;98573.97;;;12.60;100.00
43119;BME280;28729;49.838;8.650;2023-10-31T08:58:42;98580.28;;;12.66;100.00
43119;BME280;28729;49.838;8.650;2023-10-31T09:02:44;98585.53;;;12.67;100.00
43119;BME280;28729;49.838;8.650;2023-10-31T09:06:51;98597.00;;;12.80;100.00
43119;BME280;28729;49.838;8.650;2023-10-31T09:10:53;98603.28;;;12.85;100.00
43119;BME280;28729;49.838;8.650;2023-10-31T09:14:55;98607.63;;;12.91;100.00
43119;BME280;28729;49.838;8.650;2023-10-31T09:18:56;98606.50;;;12.92;100.00
43119;BME280;28729;49.838;8.650;2023-10-31T09:22:58;98606.78;;;12.91;100.00
43119;BME280;28729;49.838;8.650;2023-10-31T09:27:00;98621.63;;;13.00;100.00
43119;BME280;28729;49.838;8.650;2023-10-31T09:31:03;98622.28;;;13.16;100.00
43119;BME280;28729;49.838;8.650;2023-10-31T09:35:05;98628.56;;;13.21;100.00
43119;BME280;28729;49.838;8.650;2023-10-31T09:39:11;98632.34;;;13.31;100.00
43119;BME280;28729;49.838;8.650;2023-10-31T09:43:13;98635.13;;;13.50;100.00
43119;BME280;28729;49.838;8.650;2023-10-31T09:47:15;98630.41;;;13.50;100.00
43119;BME280;28729;49.838;8.650;2023-10-31T09:51:17;98636.78;;;13.51;100.00
43119;BME280;28729;49.838;8.650;2023-10-31T09:55:19;98646.28;;;13.63;100.00
43119;BME280;28729;49.838;8.650;2023-10-31T09:59:21;98640.81;;;13.58;100.00
43119;BME280;28729;49.838;8.650;2023-10-31T10:03:24;98643.00;;;13.61;100.00
43119;BME280;28729;49.838;8.650;2023-10-31T10:07:25;98642.25;;;13.75;100.00
43119;BME280;28729;49.838;8.650;2023-10-31T10:11:28;98647.09;;;13.83;100.00
43119;BME280;28729;49.838;8.650;2023-10-31T10:15:30;98635.34;;;13.91;100.00
43119;BME280;28729;49.838;8.650;2023-10-31T10:19:33;98635.22;;;14.01;100.00
43119;BME280;28729;49.838;8.650;2023-10-31T10:23:35;98637.88;;;14.06;100.00
43119;BME280;28729;49.838;8.650;2023-10-31T10:27:37;98644.91;;;14.18;100.00
43119;BME280;28729;49.838;8.650;2023-10-31T10:31:39;98647.16;;;14.16;100.00
43119;BME280;28729;49.838;8.650;2023-10-31T10:35:43;98645.72;;;14.18;100.00
43119;BME280;28729;49.838;8.650;2023-10-31T10:39:47;98641.38;;;14.31;100.00
43119;BME280;28729;49.838;8.650;2023-10-31T10:44:04;98641.13;;;14.46;100.00
43119;BME280;28729;49.838;8.650;2023-10-31T10:48:11;98642.84;;;14.42;95.93
43119;BME280;28729;49.838;8.650;2023-10-31T10:52:32;98643.84;;;14.32;93.69
43119;BME280;28729;49.838;8.650;2023-10-31T10:56:38;98636.94;;;14.30;95.37
43119;BME280;28729;49.838;8.650;2023-10-31T11:00:44;98640.03;;;14.28;91.27
43119;BME280;28729;49.838;8.650;2023-10-31T11:04:47;98639.94;;;14.52;93.11
43119;BME280;28729;49.838;8.650;2023-10-31T11:08:52;98632.69;;;14.70;91.71
43119;BME280;28729;49.838;8.650;2023-10-31T11:12:54;98629.28;;;14.73;89.17
43119;BME280;28729;49.838;8.650;2023-10-31T11:17:06;98635.97;;;14.72;83.61
43119;BME280;28729;49.838;8.650;2023-10-31T11:21:22;98631.63;;;14.66;82.75
43119;BME280;28729;49.838;8.650;2023-10-31T11:25:24;98635.56;;;14.79;85.15
43119;BME280;28729;49.838;8.650;2023-10-31T11:29:33;98638.13;;;14.89;85.59
43119;BME280;28729;49.838;8.650;2023-10-31T11:33:39;98637.09;;;14.85;86.35
43119;BME280;28729;49.838;8.650;2023-10-31T11:37:41;98634.31;;;14.99;89.47
43119;BME280;28729;49.838;8.650;2023-10-31T11:41:51;98638.56;;;14.96;88.70
43119;BME280;28729;49.838;8.650;2023-10-31T11:45:57;98645.94;;;14.87;85.35
43119;BME280;28729;49.838;8.650;2023-10-31T11:50:02;98650.28;;;14.93;84.60
43119;BME280;28729;49.838;8.650;2023-10-31T11:54:05;98644.09;;;14.82;82.77
43119;BME280;28729;49.838;8.650;2023-10-31T11:58:23;98644.59;;;14.71;81.57
43119;BME280;28729;49.838;8.650;2023-10-31T12:02:27;98655.06;;;14.74;83.99
43119;BME280;28729;49.838;8.650;2023-10-31T12:06:29;98656.19;;;14.73;84.18
43119;BME280;28729;49.838;8.650;2023-10-31T12:10:31;98662.97;;;14.67;83.52
43119;BME280;28729;49.838;8.650;2023-10-31T12:14:36;98663.38;;;14.74;84.16
43119;BME280;28729;49.838;8.650;2023-10-31T12:18:40;98665.41;;;14.68;86.11
43119;BME280;28729;49.838;8.650;2023-10-31T12:22:43;98672.50;;;14.61;86.55
43119;BME280;28729;49.838;8.650;2023-10-31T12:26:47;98669.50;;;14.57;87.59
43119;BME280;28729;49.838;8.650;2023-10-31T12:30:51;98673.44;;;14.51;87.49
43119;BME280;28729;49.838;8.650;2023-10-31T12:34:53;98678.88;;;14.61;88.20
43119;BME280;28729;49.838;8.650;2023-10-31T12:38:56;98679.00;;;14.70;85.67
43119;BME280;28729;49.838;8.650;2023-10-31T12:42:59;98682.50;;;14.89;82.83
43119;BME280;28729;49.838;8.650;2023-10-31T12:47:01;98681.72;;;15.16;82.08
43119;BME280;28729;49.838;8.650;2023-10-31T12:51:06;98685.41;;;15.39;81.44
43119;BME280;28729;49.838;8.650;2023-10-31T12:55:15;98678.59;;;15.87;79.88
43119;BME280;28729;49.838;8.650;2023-10-31T12:59:19;98675.69;;;16.28;77.72
43119;BME280;28729;49.838;8.650;2023-10-31T13:03:22;98684.53;;;16.30;73.97
43119;BME280;28729;49.838;8.650;2023-10-31T13:07:27;98685.84;;;16.10;73.27
43119;BME280;28729;49.838;8.650;2023-10-31T13:11:30;98694.56;;;15.81;73.24
43119;BME280;28729;49.838;8.650;2023-10-31T13:15:32;98701.69;;;15.74;76.10
43119;BME280;28729;49.838;8.650;2023-10-31T13:19:34;98694.84;;;15.66;76.20
43119;BME280;28729;49.838;8.650;2023-10-31T13:23:42;98700.53;;;15.47;76.92
43119;BME280;28729;49.838;8.650;2023-10-31T13:27:46;98696.44;;;15.44;78.84
43119;BME280;28729;49.838;8.650;2023-10-31T13:31:53;98698.59;;;15.47;80.75
43119;BME280;28729;49.838;8.650;2023-10-31T13:35:55;98700.03;;;15.72;81.28
43119;BME280;28729;49.838;8.650;2023-10-31T13:39:59;98683.00;;;15.88;81.47
43119;BME280;28729;49.838;8.650;2023-10-31T13:44:01;98703.88;;;15.99;80.99
43119;BME280;28729;49.838;8.650;2023-10-31T13:48:06;98696.88;;;16.02;79.82
43119;BME280;28729;49.838;8.650;2023-10-31T13:52:08;98701.56;;;16.15;77.84
43119;BME280;28729;49.838;8.650;2023-10-31T13:56:10;98706.88;;;16.25;73.90
43119;BME280;28729;49.838;8.650;2023-10-31T14:00:12;98699.56;;;16.29;74.83
43119;BME280;28729;49.838;8.650;2023-10-31T14:04:14;98703.16;;;16.30;75.11
43119;BME280;28729;49.838;8.650;2023-10-31T14:08:17;98713.09;;;16.22;74.51
43119;BME280;28729;49.838;8.650;2023-10-31T14:12:25;98711.66;;;16.11;72.60
43119;BME280;28729;49.838;8.650;2023-10-31T14:16:28;98716.78;;;16.17;75.20
43119;BME280;28729;49.838;8.650;2023-10-31T14:20:31;98723.56;;;16.25;73.49
43119;BME280;28729;49.838;8.650;2023-10-31T14:24:34;98722.25;;;16.09;73.54
43119;BME280;28729;49.838;8.650;2023-10-31T14:28:36;98728.41;;;15.83;75.53
43119;BME280;28729;49.838;8.650;2023-10-31T14:32:40;98733.25;;;15.50;77.26
43119;BME280;28729;49.838;8.650;2023-10-31T14:36:42;98732.09;;;15.37;78.08
43119;BME280;28729;49.838;8.650;2023-10-31T14:40:43;98737.13;;;15.35;78.87
43119;BME280;28729;49.838;8.650;2023-10-31T14:44:46;98743.81;;;15.34;79.76
43119;BME280;28729;49.838;8.650;2023-10-31T14:48:48;98744.72;;;15.16;80.26
43119;BME280;28729;49.838;8.650;2023-10-31T14:52:51;98751.78;;;14.94;81.93
43119;BME280;28729;49.838;8.650;2023-10-31T14:56:53;98754.50;;;14.80;83.93
43119;BME280;28729;49.838;8.650;2023-10-31T15:00:54;98769.66;;;14.69;84.63
43119;BME280;28729;49.838;8.650;2023-10-31T15:04:57;98757.38;;;14.56;86.55
43119;BME280;28729;49.838;8.650;2023-10-31T15:08:59;98767.44;;;14.52;87.20
43119;BME280;28729;49.838;8.650;2023-10-31T15:13:03;98763.56;;;14.48;88.17
43119;BME280;28729;49.838;8.650;2023-10-31T15:17:07;98759.09;;;14.33;90.72
43119;BME280;28729;49.838;8.650;2023-10-31T15:21:09;98770.94;;;14.20;92.32
43119;BME280;28729;49.838;8.650;2023-10-31T15:25:12;98766.66;;;14.09;94.30
43119;BME280;28729;49.838;8.650;2023-10-31T15:29:14;98774.41;;;13.88;96.35
43119;BME280;28729;49.838;8.650;2023-10-31T15:33:16;98783.16;;;13.76;97.33
43119;BME280;28729;49.838;8.650;2023-10-31T15:37:18;98782.22;;;13.62;99.26
43119;BME280;28729;49.838;8.650;2023-10-31T15:41:21;98784.06;;;13.48;100.00
43119;BME280;28729;49.838;8.650;2023-10-31T15:45:25;98800.41;;;13.44;100.00
43119;BME280;28729;49.838;8.650;2023-10-31T15:49:26;98802.13;;;13.40;100.00
43119;BME280;28729;49.838;8.650;2023-10-31T15:53:28;98803.53;;;13.37;100.00
43119;BME280;28729;49.838;8.650;2023-10-31T15:57:30;98811.28;;;13.35;100.00
43119;BME280;28729;49.838;8.650;2023-10-31T16:01:36;98812.13;;;13.36;100.00
43119;BME280;28729;49.838;8.650;2023-10-31T16:05:40;98814.34;;;13.34;100.00
43119;BME280;28729;49.838;8.650;2023-10-31T16:09:42;98819.34;;;13.32;100.00
43119;BME280;28729;49.838;8.650;2023-10-31T16:13:44;98831.25;;;13.32;100.00
43119;BME280;28729;49.838;8.650;2023-10-31T16:17:46;98837.06;;;13.31;100.00
43119;BME280;28729;49.838;8.650;2023-10-31T16:21:49;98832.94;;;13.28;100.00
43119;BME280;28729;49.838;8.650;2023-10-31T16:25:51;98838.78;;;13.27;100.00
43119;BME280;28729;49.838;8.650;2023-10-31T16:29:53;98860.34;;;13.25;100.00
43119;BME280;28729;49.838;8.650;2023-10-31T16:33:55;98864.78;;;13.26;100.00
43119;BME280;28729;49.838;8.650;2023-10-31T16:37:57;98863.38;;;13.23;100.00
43119;BME280;28729;49.838;8.650;2023-10-31T16:41:58;98869.75;;;13.23;100.00
43119;BME280;28729;49.838;8.650;2023-10-31T16:46:01;98876.72;;;13.21;100.00
43119;BME280;28729;49.838;8.650;2023-10-31T16:50:03;98877.53;;;13.21;100.00
43119;BME280;28729;49.838;8.650;2023-10-31T16:54:06;98882.53;;;13.14;100.00
43119;BME280;28729;49.838;8.650;2023-10-31T16:58:08;98890.91;;;13.09;100.00
43119;BME280;28729;49.838;8.650;2023-10-31T17:02:11;98889.81;;;13.05;100.00
43119;BME280;28729;49.838;8.650;2023-10-31T17:06:14;98901.97;;;13.09;100.00
43119;BME280;28729;49.838;8.650;2023-10-31T17:10:17;98903.06;;;13.08;100.00
43119;BME280;28729;49.838;8.650;2023-10-31T17:14:19;98918.25;;;13.11;100.00
43119;BME280;28729;49.838;8.650;2023-10-31T17:18:25;98918.56;;;13.09;100.00
43119;BME280;28729;49.838;8.650;2023-10-31T17:22:29;98921.91;;;13.06;100.00
43119;BME280;28729;49.838;8.650;2023-10-31T17:26:34;98928.00;;;13.03;100.00
43119;BME280;28729;49.838;8.650;2023-10-31T17:30:36;98929.94;;;13.03;100.00
43119;BME280;28729;49.838;8.650;2023-10-31T17:34:38;98937.94;;;13.04;100.00
43119;BME280;28729;49.838;8.650;2023-10-31T17:38:47;98955.66;;;13.03;100.00
43119;BME280;28729;49.838;8.650;2023-10-31T17:42:49;98960.41;;;12.97;100.00
43119;BME280;28729;49.838;8.650;2023-10-31T17:46:51;98961.22;;;12.98;100.00
43119;BME280;28729;49.838;8.650;2023-10-31T17:50:55;98966.19;;;13.01;100.00
43119;BME280;28729;49.838;8.650;2023-10-31T17:54:56;98979.19;;;13.00;100.00
43119;BME280;28729;49.838;8.650;2023-10-31T17:58:58;98973.34;;;13.02;100.00
43119;BME280;28729;49.838;8.650;2023-10-31T18:03:00;98967.25;;;13.05;100.00
43119;BME280;28729;49.838;8.650;2023-10-31T18:07:02;98972.28;;;13.03;100.00
43119;BME280;28729;49.838;8.650;2023-10-31T18:11:04;98982.22;;;13.04;100.00
43119;BME280;28729;49.838;8.650;2023-10-31T18:15:08;98987.44;;;13.06;100.00
43119;BME280;28729;49.838;8.650;2023-10-31T18:19:10;98995.72;;;13.06;100.00
43119;BME280;28729;49.838;8.650;2023-10-31T18:23:13;98990.19;;;13.06;100.00
43119;BME280;28729;49.838;8.650;2023-10-31T18:27:16;98996.59;;;13.01;100.00
43119;BME280;28729;49.838;8.650;2023-10-31T18:31:18;99011.00;;;12.98;100.00
43119;BME280;28729;49.838;8.650;2023-10-31T18:35:20;99009.94;;;12.94;100.00
43119;BME280;28729;49.838;8.650;2023-10-31T18:39:22;99008.00;;;12.89;100.00
43119;BME280;28729;49.838;8.650;2023-10-31T18:43:24;99017.69;;;12.87;100.00
43119;BME280;28729;49.838;8.650;2023-10-31T18:47:26;99020.22;;;12.83;100.00
43119;BME280;28729;49.838;8.650;2023-10-31T18:51:28;99029.63;;;12.82;100.00
43119;BME280;28729;49.838;8.650;2023-10-31T18:55:30;99031.25;;;12.83;100.00
43119;BME280;28729;49.838;8.650;2023-10-31T18:59:32;99033.78;;;12.74;100.00
43119;BME280;28729;49.838;8.650;2023-10-31T19:03:36;99034.91;;;12.73;100.00
43119;BME280;28729;49.838;8.650;2023-10-31T19:07:38;99033.81;;;12.69;100.00
43119;BME280;28729;49.838;8.650;2023-10-31T19:11:42;99044.84;;;12.69;100.00
43119;BME280;28729;49.838;8.650;2023-10-31T19:15:44;99029.94;;;12.70;100.00
43119;BME280;28729;49.838;8.650;2023-10-31T19:19:45;99045.97;;;12.68;100.00
43119;BME280;28729;49.838;8.650;2023-10-31T19:23:49;99047.09;;;12.67;100.00
43119;BME280;28729;49.838;8.650;2023-10-31T19:27:51;99042.09;;;12.69;100.00
43119;BME280;28729;49.838;8.650;2023-10-31T19:31:54;99042.91;;;12.70;100.00
43119;BME280;28729;49.838;8.650;2023-10-31T19:35:56;99050.13;;;12.66;100.00
43119;BME280;28729;49.838;8.650;2023-10-31T19:39:59;99063.69;;;12.62;100.00
43119;BME280;28729;49.838;8.650;2023-10-31T19:44:01;99058.16;;;12.62;100.00
43119;BME280;28729;49.838;8.650;2023-10-31T19:48:05;99060.38;;;12.65;100.00
43119;BME280;28729;49.838;8.650;2023-10-31T19:52:07;99062.56;;;12.68;100.00
43119;BME280;28729;49.838;8.650;2023-10-31T19:56:17;99065.06;;;12.65;100.00
43119;BME280;28729;49.838;8.650;2023-10-31T20:00:19;99069.78;;;12.59;100.00
43119;BME280;28729;49.838;8.650;2023-10-31T20:04:33;99071.72;;;12.53;100.00
43119;BME280;28729;49.838;8.650;2023-10-31T20:08:35;99074.53;;;12.43;100.00
43119;BME280;28729;49.838;8.650;2023-10-31T20:12:38;99076.47;;;12.32;100.00
43119;BME280;28729;49.838;8.650;2023-10-31T20:16:40;99086.69;;;12.37;100.00
43119;BME280;28729;49.838;8.650;2023-10-31T20:20:42;99078.69;;;12.41;100.00
43119;BME280;28729;49.838;8.650;2023-10-31T20:24:44;99084.72;;;12.48;100.00
43119;BME280;28729;49.838;8.650;2023-10-31T20:28:47;99084.19;;;12.46;100.00
43119;BME280;28729;49.838;8.650;2023-10-31T20:32:51;99084.72;;;12.48;100.00
43119;BME280;28729;49.838;8.650;2023-10-31T20:36:54;99089.13;;;12.54;100.00
43119;BME280;28729;49.838;8.650;2023-10-31T20:40:55;99086.06;;;12.61;100.00
43119;BME280;28729;49.838;8.650;2023-10-31T20:44:57;99083.03;;;12.62;100.00
43119;BME280;28729;49.838;8.650;2023-10-31T20:48:59;99080.03;;;12.59;100.00
43119;BME280;28729;49.838;8.650;2023-10-31T20:53:03;99092.47;;;12.56;100.00
43119;BME280;28729;49.838;8.650;2023-10-31T20:57:06;99092.16;;;12.58;100.00
43119;BME280;28729;49.838;8.650;2023-10-31T21:01:09;99094.38;;;12.61;100.00
43119;BME280;28729;49.838;8.650;2023-10-31T21:05:22;99086.88;;;12.66;100.00
43119;BME280;28729;49.838;8.650;2023-10-31T21:09:26;99095.19;;;12.66;100.00
43119;BME280;28729;49.838;8.650;2023-10-31T21:13:28;99092.69;;;12.70;100.00